TVF59EY LFPO-LICJ
Flight info
| Callsign | TVF59EY |
|---|---|
| Flight time | 2h 2m |
| Altitude | 39000 |
| Route | LATRA DCT LAMUT DCT UTUVA DCT TITVA DCT NOQAS DCT OTROT DCT RETNO/N0047F390 DCT KOLON DCT RAPUR DCT RATAP DCT BTA DCT DOKAR DCT SUNEV DCT NEMIT DCT POKAV DCT GIANO |
| Aircraft | B738/M-SDFGHIJ1RWXY/LB1 |
Departure
| Time | 2026-05-06 07:15 |
|---|---|
| Airport | Paris-Orly Airport (LFPO) |
Arrival
| Time | 2026-05-06 09:17 |
|---|---|
| Airport | Falcone–Borsellino Airport (LICJ) |
| Time | Latitude | Longitude | Altitude | Speed | Heading |
|---|---|---|---|---|---|
| 2026-05-06 06:25 | 48.72327 | 2.36142 | 292 ft | 0 kts | 180° |
| 2026-05-06 07:05 | 48.72337 | 2.36142 | 291 ft | 3 kts | 180° |
| 2026-05-06 07:05 | 48.72357 | 2.36141 | 289 ft | 2 kts | 180° |
| 2026-05-06 07:06 | 48.72376 | 2.36143 | 291 ft | 3 kts | 191° |
| 2026-05-06 07:06 | 48.72395 | 2.36151 | 292 ft | 3 kts | 210° |
| 2026-05-06 07:06 | 48.72409 | 2.36169 | 293 ft | 3 kts | 239° |
| 2026-05-06 07:06 | 48.72415 | 2.36186 | 292 ft | 1 kts | 254° |
| 2026-05-06 07:07 | 48.72416 | 2.36191 | 292 ft | 0 kts | 254° |
| 2026-05-06 07:10 | 48.72414 | 2.36182 | 282 ft | 3 kts | 254° |
| 2026-05-06 07:10 | 48.72402 | 2.36119 | 304 ft | 9 kts | 254° |
| 2026-05-06 07:11 | 48.72382 | 2.36007 | 302 ft | 12 kts | 254° |
| 2026-05-06 07:11 | 48.72361 | 2.35891 | 302 ft | 11 kts | 254° |
| 2026-05-06 07:11 | 48.72340 | 2.35779 | 304 ft | 11 kts | 254° |
| 2026-05-06 07:11 | 48.72317 | 2.35671 | 300 ft | 11 kts | 244° |
| 2026-05-06 07:12 | 48.72261 | 2.35606 | 303 ft | 10 kts | 195° |
| 2026-05-06 07:12 | 48.72192 | 2.35614 | 301 ft | 10 kts | 168° |
| 2026-05-06 07:12 | 48.72126 | 2.35639 | 303 ft | 10 kts | 164° |
| 2026-05-06 07:12 | 48.72067 | 2.35683 | 302 ft | 9 kts | 138° |
| 2026-05-06 07:13 | 48.72026 | 2.35759 | 299 ft | 9 kts | 126° |
| 2026-05-06 07:13 | 48.71992 | 2.35840 | 301 ft | 9 kts | 126° |
| 2026-05-06 07:13 | 48.71955 | 2.35912 | 301 ft | 9 kts | 99° |
| 2026-05-06 07:13 | 48.71966 | 2.35994 | 300 ft | 8 kts | 75° |
| 2026-05-06 07:14 | 48.72002 | 2.36190 | 302 ft | 46 kts | 74° |
| 2026-05-06 07:14 | 48.72150 | 2.36991 | 300 ft | 110 kts | 75° |
| 2026-05-06 07:14 | 48.72407 | 2.38377 | 309 ft | 161 kts | 71° |
| 2026-05-06 07:14 | 48.72712 | 2.40058 | 861 ft | 168 kts | 70° |
| 2026-05-06 07:15 | 48.73033 | 2.41773 | 1727 ft | 169 kts | 69° |
| 2026-05-06 07:15 | 48.73341 | 2.43442 | 2729 ft | 164 kts | 69° |
| 2026-05-06 07:15 | 48.73661 | 2.45137 | 3579 ft | 171 kts | 70° |
| 2026-05-06 07:15 | 48.74000 | 2.47003 | 3949 ft | 202 kts | 73° |
| 2026-05-06 07:16 | 48.74134 | 2.49298 | 4243 ft | 230 kts | 85° |
| 2026-05-06 07:16 | 48.74187 | 2.51764 | 4861 ft | 237 kts | 84° |
| 2026-05-06 07:16 | 48.74238 | 2.54362 | 5155 ft | 264 kts | 90° |
| 2026-05-06 07:16 | 48.73829 | 2.57114 | 6041 ft | 269 kts | 112° |
| 2026-05-06 07:17 | 48.72671 | 2.59362 | 6883 ft | 278 kts | 141° |
| 2026-05-06 07:17 | 48.70927 | 2.60628 | 7754 ft | 282 kts | 167° |
| 2026-05-06 07:17 | 48.68971 | 2.60776 | 8668 ft | 281 kts | 184° |
| 2026-05-06 07:17 | 48.67019 | 2.60492 | 9604 ft | 282 kts | 186° |
| 2026-05-06 07:18 | 48.65051 | 2.60175 | 10263 ft | 291 kts | 187° |
| 2026-05-06 07:18 | 48.62954 | 2.59833 | 10460 ft | 316 kts | 187° |
| 2026-05-06 07:18 | 48.60742 | 2.59479 | 11193 ft | 316 kts | 187° |
| 2026-05-06 07:18 | 48.58570 | 2.59140 | 12228 ft | 313 kts | 188° |
| 2026-05-06 07:19 | 48.56383 | 2.58805 | 12919 ft | 321 kts | 188° |
| 2026-05-06 07:19 | 48.54120 | 2.58458 | 13365 ft | 336 kts | 187° |
| 2026-05-06 07:19 | 48.51710 | 2.58090 | 13591 ft | 356 kts | 187° |
| 2026-05-06 07:19 | 48.49205 | 2.57712 | 14126 ft | 365 kts | 187° |
| 2026-05-06 07:20 | 48.46673 | 2.57335 | 14879 ft | 366 kts | 187° |
| 2026-05-06 07:20 | 48.44159 | 2.56962 | 15584 ft | 369 kts | 187° |
| 2026-05-06 07:20 | 48.41585 | 2.56580 | 16268 ft | 372 kts | 187° |
| 2026-05-06 07:20 | 48.38996 | 2.56195 | 16948 ft | 375 kts | 186° |
| 2026-05-06 07:21 | 48.36383 | 2.55807 | 17638 ft | 379 kts | 186° |
| 2026-05-06 07:21 | 48.33743 | 2.55416 | 18272 ft | 383 kts | 186° |
| 2026-05-06 07:21 | 48.31077 | 2.55021 | 18850 ft | 386 kts | 186° |
| 2026-05-06 07:21 | 48.28385 | 2.54623 | 19410 ft | 389 kts | 186° |
| 2026-05-06 07:22 | 48.25682 | 2.54224 | 20002 ft | 392 kts | 186° |
| 2026-05-06 07:22 | 48.22961 | 2.53822 | 20582 ft | 394 kts | 186° |
| 2026-05-06 07:22 | 48.20220 | 2.53417 | 21156 ft | 397 kts | 186° |
| 2026-05-06 07:22 | 48.17471 | 2.53012 | 21741 ft | 398 kts | 186° |
| 2026-05-06 07:23 | 48.14699 | 2.52603 | 22305 ft | 401 kts | 185° |
| 2026-05-06 07:23 | 48.11913 | 2.52193 | 22870 ft | 403 kts | 185° |
| 2026-05-06 07:23 | 48.09105 | 2.52069 | 23405 ft | 406 kts | 176° |
| 2026-05-06 07:23 | 48.06296 | 2.52632 | 23831 ft | 409 kts | 167° |
| 2026-05-06 07:24 | 48.03597 | 2.53831 | 24260 ft | 411 kts | 161° |
| 2026-05-06 07:24 | 48.00879 | 2.55194 | 24698 ft | 414 kts | 161° |
| 2026-05-06 07:24 | 47.98147 | 2.56586 | 25117 ft | 416 kts | 161° |
| 2026-05-06 07:24 | 47.95394 | 2.57984 | 25507 ft | 419 kts | 161° |
| 2026-05-06 07:25 | 47.92619 | 2.59380 | 25895 ft | 422 kts | 161° |
| 2026-05-06 07:25 | 47.89823 | 2.60772 | 26296 ft | 424 kts | 161° |
| 2026-05-06 07:25 | 47.87019 | 2.62157 | 26746 ft | 425 kts | 161° |
| 2026-05-06 07:25 | 47.84200 | 2.63542 | 27106 ft | 428 kts | 161° |
| 2026-05-06 07:26 | 47.81354 | 2.64936 | 27407 ft | 432 kts | 161° |
| 2026-05-06 07:26 | 47.78484 | 2.66338 | 27802 ft | 433 kts | 161° |
| 2026-05-06 07:26 | 47.75618 | 2.67736 | 28175 ft | 435 kts | 162° |
| 2026-05-06 07:26 | 47.72771 | 2.69124 | 28511 ft | 437 kts | 162° |
| 2026-05-06 07:27 | 47.69872 | 2.70536 | 28841 ft | 439 kts | 162° |
| 2026-05-06 07:27 | 47.66967 | 2.71949 | 29234 ft | 440 kts | 162° |
| 2026-05-06 07:27 | 47.64039 | 2.73372 | 29571 ft | 442 kts | 162° |
| 2026-05-06 07:27 | 47.61123 | 2.74787 | 29970 ft | 441 kts | 162° |
| 2026-05-06 07:28 | 47.58204 | 2.76203 | 30324 ft | 441 kts | 162° |
| 2026-05-06 07:28 | 47.55288 | 2.77615 | 30645 ft | 441 kts | 162° |
| 2026-05-06 07:28 | 47.49466 | 2.80430 | 31347 ft | 439 kts | 162° |
| 2026-05-06 07:29 | 47.46563 | 2.81832 | 31685 ft | 439 kts | 162° |
| 2026-05-06 07:29 | 47.43658 | 2.83232 | 32019 ft | 438 kts | 162° |
| 2026-05-06 07:29 | 47.40758 | 2.84628 | 32336 ft | 438 kts | 162° |
| 2026-05-06 07:29 | 47.37855 | 2.86025 | 32643 ft | 438 kts | 162° |
| 2026-05-06 07:30 | 47.34994 | 2.87399 | 32947 ft | 438 kts | 162° |
| 2026-05-06 07:30 | 47.32090 | 2.88793 | 33279 ft | 437 kts | 162° |
| 2026-05-06 07:30 | 47.29192 | 2.90182 | 33597 ft | 437 kts | 162° |
| 2026-05-06 07:30 | 47.26304 | 2.91565 | 33898 ft | 437 kts | 162° |
| 2026-05-06 07:31 | 47.23417 | 2.92945 | 34140 ft | 436 kts | 162° |
| 2026-05-06 07:31 | 47.20521 | 2.94329 | 34373 ft | 436 kts | 162° |
| 2026-05-06 07:31 | 47.17670 | 2.95690 | 34600 ft | 436 kts | 162° |
| 2026-05-06 07:31 | 47.14747 | 2.97084 | 34808 ft | 437 kts | 163° |
| 2026-05-06 07:32 | 47.11883 | 2.98447 | 35008 ft | 438 kts | 163° |
| 2026-05-06 07:32 | 47.08963 | 2.99764 | 35223 ft | 437 kts | 165° |
| 2026-05-06 07:32 | 47.06034 | 3.00983 | 35436 ft | 438 kts | 165° |
| 2026-05-06 07:32 | 47.03097 | 3.02165 | 35634 ft | 438 kts | 166° |
| 2026-05-06 07:33 | 47.00150 | 3.03343 | 35832 ft | 439 kts | 166° |
| 2026-05-06 07:33 | 46.97202 | 3.04527 | 36026 ft | 439 kts | 166° |
| 2026-05-06 07:33 | 46.94257 | 3.05718 | 36208 ft | 440 kts | 166° |
| 2026-05-06 07:33 | 46.91309 | 3.06917 | 36390 ft | 440 kts | 166° |
| 2026-05-06 07:34 | 46.88390 | 3.08109 | 36579 ft | 440 kts | 166° |
| 2026-05-06 07:34 | 46.85436 | 3.09317 | 36753 ft | 441 kts | 166° |
| 2026-05-06 07:34 | 46.82482 | 3.10525 | 36854 ft | 442 kts | 166° |
| 2026-05-06 07:34 | 46.79507 | 3.11740 | 36847 ft | 444 kts | 166° |
| 2026-05-06 07:35 | 46.73568 | 3.14163 | 36853 ft | 441 kts | 166° |
| 2026-05-06 07:35 | 46.67677 | 3.16561 | 36855 ft | 438 kts | 166° |
| 2026-05-06 07:36 | 46.61800 | 3.18946 | 36857 ft | 436 kts | 166° |
| 2026-05-06 07:36 | 46.55964 | 3.21308 | 36856 ft | 435 kts | 166° |
| 2026-05-06 07:37 | 46.50165 | 3.23651 | 36862 ft | 434 kts | 166° |
| 2026-05-06 07:37 | 46.45314 | 3.25607 | 36864 ft | 435 kts | 166° |
| 2026-05-06 07:38 | 46.38521 | 3.28339 | 36875 ft | 436 kts | 166° |
| 2026-05-06 07:38 | 46.32665 | 3.30689 | 36882 ft | 438 kts | 166° |
| 2026-05-06 07:39 | 46.27761 | 3.32653 | 36886 ft | 439 kts | 166° |
| 2026-05-06 07:39 | 46.21859 | 3.35012 | 36889 ft | 441 kts | 166° |
| 2026-05-06 07:40 | 46.15930 | 3.37377 | 36883 ft | 442 kts | 166° |
| 2026-05-06 07:40 | 46.09983 | 3.39743 | 36888 ft | 444 kts | 166° |
| 2026-05-06 07:41 | 46.04047 | 3.42100 | 36884 ft | 444 kts | 167° |
| 2026-05-06 07:41 | 45.98078 | 3.44466 | 36869 ft | 444 kts | 167° |
| 2026-05-06 07:42 | 45.92125 | 3.46820 | 36871 ft | 442 kts | 167° |
| 2026-05-06 07:42 | 45.86256 | 3.49466 | 36874 ft | 443 kts | 158° |
| 2026-05-06 07:43 | 45.80946 | 3.53997 | 36879 ft | 445 kts | 149° |
| 2026-05-06 07:43 | 45.75842 | 3.58917 | 36873 ft | 444 kts | 149° |
| 2026-05-06 07:44 | 45.70696 | 3.63820 | 36881 ft | 443 kts | 149° |
| 2026-05-06 07:44 | 45.65550 | 3.68660 | 36881 ft | 442 kts | 150° |
| 2026-05-06 07:45 | 45.60406 | 3.73472 | 36881 ft | 442 kts | 150° |
| 2026-05-06 07:45 | 45.55252 | 3.78284 | 36889 ft | 442 kts | 150° |
| 2026-05-06 07:46 | 45.50098 | 3.83086 | 36897 ft | 443 kts | 150° |
| 2026-05-06 07:46 | 45.44929 | 3.87895 | 36893 ft | 443 kts | 150° |
| 2026-05-06 07:47 | 45.39756 | 3.92696 | 36890 ft | 444 kts | 150° |
| 2026-05-06 07:47 | 45.35065 | 3.98386 | 36890 ft | 452 kts | 133° |
| 2026-05-06 07:48 | 45.31397 | 4.05692 | 36890 ft | 455 kts | 128° |
| 2026-05-06 07:48 | 45.27809 | 4.13092 | 36891 ft | 455 kts | 129° |
| 2026-05-06 07:49 | 45.24153 | 4.20451 | 36889 ft | 455 kts | 129° |
| 2026-05-06 07:49 | 45.20449 | 4.27747 | 36890 ft | 455 kts | 131° |
| 2026-05-06 07:50 | 45.16631 | 4.34902 | 36881 ft | 455 kts | 131° |
| 2026-05-06 07:50 | 45.12829 | 4.42035 | 36882 ft | 456 kts | 131° |
| 2026-05-06 07:51 | 45.09011 | 4.49218 | 36894 ft | 456 kts | 131° |
| 2026-05-06 07:51 | 45.05186 | 4.56389 | 36882 ft | 456 kts | 131° |
| 2026-05-06 07:52 | 45.01358 | 4.63548 | 36899 ft | 455 kts | 131° |
| 2026-05-06 07:52 | 44.97559 | 4.70638 | 36898 ft | 454 kts | 131° |
| 2026-05-06 07:53 | 44.93747 | 4.77736 | 36907 ft | 453 kts | 132° |
| 2026-05-06 07:53 | 44.89933 | 4.84819 | 36910 ft | 453 kts | 132° |
| 2026-05-06 07:54 | 44.86116 | 4.91891 | 36915 ft | 453 kts | 132° |
| 2026-05-06 07:54 | 44.82295 | 4.98950 | 36912 ft | 453 kts | 132° |
| 2026-05-06 07:55 | 44.78464 | 5.06013 | 36911 ft | 453 kts | 133° |
| 2026-05-06 07:55 | 44.74631 | 5.13063 | 36900 ft | 454 kts | 133° |
| 2026-05-06 07:56 | 44.70796 | 5.20098 | 36896 ft | 453 kts | 133° |
| 2026-05-06 07:56 | 44.66952 | 5.27133 | 36884 ft | 453 kts | 133° |
| 2026-05-06 07:57 | 44.63134 | 5.34105 | 36896 ft | 453 kts | 133° |
| 2026-05-06 07:57 | 44.59283 | 5.41118 | 36887 ft | 453 kts | 133° |
| 2026-05-06 07:58 | 44.55436 | 5.48108 | 36884 ft | 451 kts | 133° |
| 2026-05-06 07:58 | 44.51623 | 5.55021 | 36900 ft | 450 kts | 134° |
| 2026-05-06 07:59 | 44.48087 | 5.62316 | 36908 ft | 454 kts | 128° |
| 2026-05-06 07:59 | 44.44780 | 5.69891 | 36893 ft | 456 kts | 127° |
| 2026-05-06 08:00 | 44.41459 | 5.77462 | 36895 ft | 456 kts | 128° |
| 2026-05-06 08:00 | 44.38098 | 5.84993 | 36899 ft | 456 kts | 128° |
| 2026-05-06 08:01 | 44.34712 | 5.92504 | 36894 ft | 457 kts | 128° |
| 2026-05-06 08:01 | 44.31318 | 6.00005 | 36896 ft | 457 kts | 128° |
| 2026-05-06 08:02 | 44.27934 | 6.07469 | 36910 ft | 457 kts | 128° |
| 2026-05-06 08:02 | 44.24528 | 6.14963 | 36893 ft | 457 kts | 128° |
| 2026-05-06 08:03 | 44.21116 | 6.22454 | 36905 ft | 458 kts | 129° |
| 2026-05-06 08:03 | 44.17696 | 6.29943 | 36891 ft | 458 kts | 129° |
| 2026-05-06 08:04 | 44.14296 | 6.37369 | 36895 ft | 457 kts | 129° |
| 2026-05-06 08:04 | 44.10875 | 6.44821 | 36889 ft | 457 kts | 129° |
| 2026-05-06 08:05 | 44.07441 | 6.52282 | 36879 ft | 456 kts | 129° |
| 2026-05-06 08:05 | 44.04017 | 6.59702 | 36872 ft | 454 kts | 129° |
| 2026-05-06 08:06 | 44.00610 | 6.67069 | 36881 ft | 453 kts | 129° |
| 2026-05-06 08:06 | 43.97201 | 6.74418 | 36863 ft | 453 kts | 129° |
| 2026-05-06 08:07 | 43.94009 | 6.81282 | 36873 ft | 451 kts | 130° |
| 2026-05-06 08:07 | 43.90625 | 6.88545 | 36873 ft | 451 kts | 130° |
| 2026-05-06 08:08 | 43.87209 | 6.95856 | 36876 ft | 452 kts | 130° |
| 2026-05-06 08:08 | 43.83791 | 7.03157 | 36831 ft | 450 kts | 130° |
| 2026-05-06 08:09 | 43.80387 | 7.10403 | 36852 ft | 450 kts | 130° |
| 2026-05-06 08:09 | 43.76950 | 7.17681 | 36894 ft | 453 kts | 130° |
| 2026-05-06 08:10 | 43.73477 | 7.25022 | 37099 ft | 458 kts | 130° |
| 2026-05-06 08:10 | 43.71735 | 7.28702 | 37331 ft | 457 kts | 130° |
| 2026-05-06 08:10 | 43.69994 | 7.32379 | 37597 ft | 456 kts | 130° |
| 2026-05-06 08:11 | 43.68260 | 7.36038 | 37769 ft | 456 kts | 130° |
| 2026-05-06 08:11 | 43.66510 | 7.39723 | 37920 ft | 457 kts | 130° |
| 2026-05-06 08:11 | 43.64785 | 7.43349 | 38116 ft | 457 kts | 130° |
| 2026-05-06 08:11 | 43.63039 | 7.47015 | 38321 ft | 456 kts | 130° |
| 2026-05-06 08:12 | 43.61296 | 7.50671 | 38495 ft | 456 kts | 130° |
| 2026-05-06 08:12 | 43.59547 | 7.54333 | 38624 ft | 456 kts | 130° |
| 2026-05-06 08:12 | 43.57798 | 7.57992 | 38764 ft | 455 kts | 129° |
| 2026-05-06 08:12 | 43.56056 | 7.61632 | 38849 ft | 456 kts | 129° |
| 2026-05-06 08:13 | 43.52545 | 7.68949 | 38876 ft | 458 kts | 130° |
| 2026-05-06 08:13 | 43.49027 | 7.76267 | 38872 ft | 458 kts | 130° |
| 2026-05-06 08:14 | 43.45510 | 7.83568 | 38874 ft | 457 kts | 130° |
| 2026-05-06 08:14 | 43.42011 | 7.90810 | 38875 ft | 457 kts | 130° |
| 2026-05-06 08:15 | 43.38494 | 7.98071 | 38872 ft | 456 kts | 130° |
| 2026-05-06 08:15 | 43.34975 | 8.05318 | 38877 ft | 455 kts | 130° |
| 2026-05-06 08:16 | 43.31462 | 8.12537 | 38880 ft | 454 kts | 130° |
| 2026-05-06 08:16 | 43.27944 | 8.19747 | 38880 ft | 454 kts | 130° |
| 2026-05-06 08:17 | 43.24432 | 8.26926 | 38885 ft | 453 kts | 130° |
| 2026-05-06 08:17 | 43.20916 | 8.34098 | 38887 ft | 452 kts | 130° |
| 2026-05-06 08:18 | 43.17403 | 8.41246 | 38889 ft | 452 kts | 130° |
| 2026-05-06 08:18 | 43.13888 | 8.48380 | 38892 ft | 452 kts | 130° |
| 2026-05-06 08:19 | 43.10396 | 8.55452 | 38901 ft | 451 kts | 130° |
| 2026-05-06 08:19 | 43.06871 | 8.62573 | 38901 ft | 451 kts | 130° |
| 2026-05-06 08:20 | 43.03350 | 8.69672 | 38903 ft | 451 kts | 130° |
| 2026-05-06 08:20 | 42.99821 | 8.76768 | 38906 ft | 451 kts | 130° |
| 2026-05-06 08:21 | 42.96288 | 8.83850 | 38902 ft | 451 kts | 130° |
| 2026-05-06 08:21 | 42.92773 | 8.90879 | 38903 ft | 451 kts | 130° |
| 2026-05-06 08:22 | 42.89236 | 8.97938 | 38900 ft | 450 kts | 130° |
| 2026-05-06 08:22 | 42.85692 | 9.04998 | 38898 ft | 450 kts | 131° |
| 2026-05-06 08:23 | 42.82147 | 9.12044 | 38901 ft | 450 kts | 131° |
| 2026-05-06 08:23 | 42.78599 | 9.19076 | 38896 ft | 450 kts | 131° |
| 2026-05-06 08:24 | 42.75042 | 9.26102 | 38891 ft | 451 kts | 131° |
| 2026-05-06 08:24 | 42.71482 | 9.33124 | 38887 ft | 451 kts | 131° |
| 2026-05-06 08:25 | 42.67916 | 9.40144 | 38892 ft | 452 kts | 131° |
| 2026-05-06 08:25 | 42.64936 | 9.45998 | 38876 ft | 453 kts | 131° |
| 2026-05-06 08:26 | 42.60759 | 9.54184 | 38882 ft | 454 kts | 131° |
| 2026-05-06 08:26 | 42.57740 | 9.60081 | 38878 ft | 454 kts | 131° |
| 2026-05-06 08:27 | 42.53697 | 9.66414 | 38886 ft | 440 kts | 148° |
| 2026-05-06 08:27 | 42.48522 | 9.70529 | 38886 ft | 426 kts | 163° |
| 2026-05-06 08:28 | 42.43057 | 9.73713 | 38883 ft | 428 kts | 161° |
| 2026-05-06 08:28 | 42.37821 | 9.77702 | 38886 ft | 433 kts | 154° |
| 2026-05-06 08:29 | 42.32682 | 9.81983 | 38889 ft | 433 kts | 154° |
| 2026-05-06 08:29 | 42.27544 | 9.86176 | 38896 ft | 433 kts | 155° |
| 2026-05-06 08:30 | 42.22363 | 9.90347 | 38907 ft | 433 kts | 155° |
| 2026-05-06 08:30 | 42.17191 | 9.94501 | 38913 ft | 432 kts | 155° |
| 2026-05-06 08:31 | 42.12056 | 9.98618 | 38915 ft | 432 kts | 155° |
| 2026-05-06 08:31 | 42.06890 | 10.02754 | 38920 ft | 432 kts | 155° |
| 2026-05-06 08:32 | 42.01709 | 10.06895 | 38925 ft | 431 kts | 155° |
| 2026-05-06 08:32 | 41.96549 | 10.11011 | 38927 ft | 431 kts | 155° |
| 2026-05-06 08:33 | 41.91392 | 10.15118 | 38933 ft | 430 kts | 155° |
| 2026-05-06 08:33 | 41.86261 | 10.19195 | 38937 ft | 430 kts | 155° |
| 2026-05-06 08:34 | 41.78530 | 10.25325 | 38957 ft | 430 kts | 155° |
| 2026-05-06 08:35 | 41.73381 | 10.29397 | 38956 ft | 429 kts | 155° |
| 2026-05-06 08:35 | 41.68228 | 10.33466 | 38957 ft | 429 kts | 155° |
| 2026-05-06 08:36 | 41.63119 | 10.37492 | 38960 ft | 429 kts | 155° |
| 2026-05-06 08:36 | 41.57975 | 10.41538 | 38965 ft | 429 kts | 155° |
| 2026-05-06 08:37 | 41.52830 | 10.45577 | 38964 ft | 429 kts | 155° |
| 2026-05-06 08:37 | 41.47676 | 10.49616 | 38964 ft | 429 kts | 155° |
| 2026-05-06 08:38 | 41.42536 | 10.53636 | 38969 ft | 429 kts | 155° |
| 2026-05-06 08:38 | 41.37388 | 10.57655 | 38972 ft | 429 kts | 155° |
| 2026-05-06 08:39 | 41.32237 | 10.61670 | 38973 ft | 429 kts | 155° |
| 2026-05-06 08:39 | 41.27089 | 10.65674 | 38976 ft | 429 kts | 155° |
| 2026-05-06 08:40 | 41.21937 | 10.69674 | 38976 ft | 429 kts | 155° |
| 2026-05-06 08:40 | 41.16817 | 10.73641 | 38976 ft | 429 kts | 155° |
| 2026-05-06 08:41 | 41.11654 | 10.77636 | 38980 ft | 429 kts | 155° |
| 2026-05-06 08:41 | 41.06497 | 10.81617 | 38979 ft | 429 kts | 155° |
| 2026-05-06 08:42 | 41.01345 | 10.85589 | 38979 ft | 428 kts | 155° |
| 2026-05-06 08:42 | 40.96191 | 10.89554 | 38985 ft | 428 kts | 155° |
| 2026-05-06 08:43 | 40.91043 | 10.93507 | 38984 ft | 427 kts | 155° |
| 2026-05-06 08:43 | 40.85930 | 10.97427 | 38985 ft | 427 kts | 155° |
| 2026-05-06 08:44 | 40.80793 | 11.01358 | 38986 ft | 427 kts | 155° |
| 2026-05-06 08:44 | 40.75655 | 11.05284 | 38988 ft | 426 kts | 155° |
| 2026-05-06 08:45 | 40.70517 | 11.09202 | 38989 ft | 426 kts | 155° |
| 2026-05-06 08:45 | 40.65382 | 11.13107 | 38990 ft | 426 kts | 155° |
| 2026-05-06 08:46 | 40.60278 | 11.16981 | 38994 ft | 426 kts | 155° |
| 2026-05-06 08:46 | 40.55136 | 11.20879 | 38996 ft | 425 kts | 155° |
| 2026-05-06 08:47 | 40.50030 | 11.24744 | 38994 ft | 425 kts | 155° |
| 2026-05-06 08:47 | 40.44891 | 11.28627 | 38994 ft | 426 kts | 155° |
| 2026-05-06 08:48 | 40.39811 | 11.32648 | 38984 ft | 430 kts | 147° |
| 2026-05-06 08:48 | 40.35164 | 11.37630 | 38993 ft | 432 kts | 145° |
| 2026-05-06 08:49 | 40.30567 | 11.42728 | 38997 ft | 433 kts | 145° |
| 2026-05-06 08:49 | 40.28251 | 11.45274 | 38884 ft | 436 kts | 145° |
| 2026-05-06 08:49 | 40.25930 | 11.47803 | 38646 ft | 441 kts | 145° |
| 2026-05-06 08:49 | 40.23556 | 11.50376 | 38369 ft | 443 kts | 145° |
| 2026-05-06 08:50 | 40.21175 | 11.52948 | 38070 ft | 440 kts | 145° |
| 2026-05-06 08:50 | 40.18813 | 11.55495 | 37787 ft | 439 kts | 146° |
| 2026-05-06 08:50 | 40.16444 | 11.58042 | 37513 ft | 441 kts | 146° |
| 2026-05-06 08:50 | 40.14100 | 11.60558 | 37249 ft | 442 kts | 146° |
| 2026-05-06 08:51 | 40.11684 | 11.63149 | 36973 ft | 444 kts | 145° |
| 2026-05-06 08:51 | 40.09322 | 11.65680 | 36699 ft | 445 kts | 145° |
| 2026-05-06 08:51 | 40.06920 | 11.68253 | 36457 ft | 447 kts | 145° |
| 2026-05-06 08:51 | 40.04507 | 11.70835 | 36195 ft | 448 kts | 145° |
| 2026-05-06 08:52 | 40.02089 | 11.73420 | 35934 ft | 450 kts | 145° |
| 2026-05-06 08:52 | 39.99664 | 11.76009 | 35685 ft | 452 kts | 145° |
| 2026-05-06 08:52 | 39.97228 | 11.78610 | 35431 ft | 453 kts | 145° |
| 2026-05-06 08:52 | 39.94775 | 11.81225 | 35177 ft | 455 kts | 145° |
| 2026-05-06 08:53 | 39.92320 | 11.83840 | 35046 ft | 456 kts | 145° |
| 2026-05-06 08:53 | 39.87427 | 11.89045 | 35014 ft | 458 kts | 145° |
| 2026-05-06 08:54 | 39.82484 | 11.94295 | 35006 ft | 458 kts | 145° |
| 2026-05-06 08:54 | 39.77551 | 11.99523 | 35004 ft | 457 kts | 145° |
| 2026-05-06 08:55 | 39.72609 | 12.04749 | 35006 ft | 457 kts | 145° |
| 2026-05-06 08:55 | 39.67675 | 12.09957 | 34876 ft | 459 kts | 145° |
| 2026-05-06 08:55 | 39.65187 | 12.12578 | 34274 ft | 458 kts | 144° |
| 2026-05-06 08:56 | 39.62710 | 12.15187 | 33588 ft | 458 kts | 144° |
| 2026-05-06 08:56 | 39.60233 | 12.17794 | 32853 ft | 459 kts | 145° |
| 2026-05-06 08:56 | 39.57749 | 12.20406 | 32126 ft | 460 kts | 145° |
| 2026-05-06 08:56 | 39.55262 | 12.23016 | 31384 ft | 461 kts | 145° |
| 2026-05-06 08:57 | 39.52793 | 12.25606 | 30636 ft | 463 kts | 146° |
| 2026-05-06 08:57 | 39.50288 | 12.28230 | 29848 ft | 464 kts | 146° |
| 2026-05-06 08:57 | 39.47783 | 12.30854 | 29227 ft | 459 kts | 146° |
| 2026-05-06 08:57 | 39.45312 | 12.33442 | 28602 ft | 455 kts | 146° |
| 2026-05-06 08:58 | 39.42865 | 12.36004 | 28031 ft | 450 kts | 146° |
| 2026-05-06 08:58 | 39.40433 | 12.38545 | 27403 ft | 446 kts | 146° |
| 2026-05-06 08:58 | 39.38008 | 12.41072 | 26379 ft | 452 kts | 146° |
| 2026-05-06 08:58 | 39.35540 | 12.43638 | 25408 ft | 457 kts | 146° |
| 2026-05-06 08:59 | 39.33067 | 12.46209 | 24718 ft | 455 kts | 146° |
| 2026-05-06 08:59 | 39.30616 | 12.48762 | 24150 ft | 449 kts | 146° |
| 2026-05-06 08:59 | 39.28195 | 12.51282 | 23585 ft | 444 kts | 146° |
| 2026-05-06 08:59 | 39.25799 | 12.53772 | 22877 ft | 441 kts | 146° |
| 2026-05-06 09:00 | 39.23420 | 12.56240 | 22197 ft | 437 kts | 146° |
| 2026-05-06 09:00 | 39.21060 | 12.58687 | 21536 ft | 433 kts | 145° |
| 2026-05-06 09:00 | 39.18747 | 12.61082 | 20910 ft | 430 kts | 145° |
| 2026-05-06 09:00 | 39.16426 | 12.63482 | 20282 ft | 426 kts | 145° |
| 2026-05-06 09:01 | 39.14107 | 12.65876 | 19271 ft | 431 kts | 145° |
| 2026-05-06 09:01 | 39.11737 | 12.68318 | 18211 ft | 439 kts | 144° |
| 2026-05-06 09:01 | 39.09350 | 12.70777 | 17351 ft | 438 kts | 144° |
| 2026-05-06 09:01 | 39.06997 | 12.73206 | 16714 ft | 427 kts | 144° |
| 2026-05-06 09:02 | 39.04720 | 12.75559 | 15769 ft | 416 kts | 144° |
| 2026-05-06 09:02 | 39.02465 | 12.77883 | 14639 ft | 413 kts | 144° |
| 2026-05-06 09:02 | 39.00236 | 12.80175 | 13536 ft | 409 kts | 144° |
| 2026-05-06 09:02 | 38.98018 | 12.82454 | 12405 ft | 403 kts | 144° |
| 2026-05-06 09:03 | 38.95845 | 12.84684 | 11398 ft | 396 kts | 144° |
| 2026-05-06 09:03 | 38.93738 | 12.86848 | 10966 ft | 376 kts | 144° |
| 2026-05-06 09:03 | 38.91763 | 12.88878 | 10802 ft | 351 kts | 144° |
| 2026-05-06 09:03 | 38.89915 | 12.90776 | 10658 ft | 330 kts | 144° |
| 2026-05-06 09:04 | 38.88173 | 12.92561 | 10526 ft | 311 kts | 144° |
| 2026-05-06 09:04 | 38.86521 | 12.94252 | 10430 ft | 297 kts | 145° |
| 2026-05-06 09:04 | 38.84923 | 12.95884 | 10309 ft | 289 kts | 145° |
| 2026-05-06 09:04 | 38.83376 | 12.97462 | 10050 ft | 287 kts | 145° |
| 2026-05-06 09:05 | 38.81807 | 12.99039 | 9736 ft | 285 kts | 150° |
| 2026-05-06 09:05 | 38.80007 | 12.99980 | 9415 ft | 277 kts | 171° |
| 2026-05-06 09:05 | 38.78141 | 13.00522 | 9143 ft | 274 kts | 172° |
| 2026-05-06 09:05 | 38.76278 | 13.01037 | 8815 ft | 273 kts | 172° |
| 2026-05-06 09:06 | 38.74424 | 13.01557 | 8537 ft | 272 kts | 171° |
| 2026-05-06 09:06 | 38.72584 | 13.02085 | 8253 ft | 270 kts | 171° |
| 2026-05-06 09:06 | 38.70750 | 13.02620 | 7970 ft | 269 kts | 171° |
| 2026-05-06 09:06 | 38.68933 | 13.03158 | 7681 ft | 267 kts | 170° |
| 2026-05-06 09:07 | 38.67146 | 13.03691 | 7413 ft | 266 kts | 170° |
| 2026-05-06 09:07 | 38.65349 | 13.04231 | 7142 ft | 264 kts | 170° |
| 2026-05-06 09:07 | 38.63561 | 13.04770 | 6872 ft | 263 kts | 169° |
| 2026-05-06 09:07 | 38.61782 | 13.05308 | 6614 ft | 261 kts | 169° |
| 2026-05-06 09:08 | 38.60016 | 13.05843 | 6359 ft | 260 kts | 169° |
| 2026-05-06 09:08 | 38.58263 | 13.06375 | 6072 ft | 258 kts | 169° |
| 2026-05-06 09:08 | 38.56518 | 13.06904 | 5794 ft | 257 kts | 169° |
| 2026-05-06 09:08 | 38.54978 | 13.07371 | 5546 ft | 256 kts | 168° |
| 2026-05-06 09:09 | 38.53249 | 13.07895 | 5267 ft | 255 kts | 168° |
| 2026-05-06 09:09 | 38.51529 | 13.08417 | 4983 ft | 253 kts | 168° |
| 2026-05-06 09:09 | 38.49817 | 13.08936 | 4693 ft | 253 kts | 168° |
| 2026-05-06 09:09 | 38.48108 | 13.09454 | 4406 ft | 251 kts | 168° |
| 2026-05-06 09:10 | 38.46414 | 13.09968 | 4138 ft | 249 kts | 168° |
| 2026-05-06 09:10 | 38.44729 | 13.10478 | 3886 ft | 247 kts | 167° |
| 2026-05-06 09:10 | 38.43084 | 13.10977 | 3760 ft | 237 kts | 167° |
| 2026-05-06 09:10 | 38.41539 | 13.11445 | 3558 ft | 226 kts | 167° |
| 2026-05-06 09:11 | 38.40025 | 13.11903 | 3333 ft | 219 kts | 167° |
| 2026-05-06 09:11 | 38.38570 | 13.12343 | 3110 ft | 211 kts | 167° |
| 2026-05-06 09:11 | 38.37167 | 13.12767 | 2918 ft | 202 kts | 167° |
| 2026-05-06 09:11 | 38.35827 | 13.13171 | 2758 ft | 193 kts | 167° |
| 2026-05-06 09:12 | 38.34550 | 13.13557 | 2570 ft | 185 kts | 166° |
| 2026-05-06 09:12 | 38.33325 | 13.13926 | 2414 ft | 176 kts | 166° |
| 2026-05-06 09:12 | 38.32168 | 13.14276 | 2254 ft | 165 kts | 166° |
| 2026-05-06 09:12 | 38.31102 | 13.14597 | 2117 ft | 156 kts | 166° |
| 2026-05-06 09:13 | 38.30048 | 13.14915 | 1956 ft | 155 kts | 165° |
| 2026-05-06 09:13 | 38.29033 | 13.15221 | 1842 ft | 149 kts | 166° |
| 2026-05-06 09:13 | 38.28032 | 13.15523 | 1702 ft | 145 kts | 166° |
| 2026-05-06 09:13 | 38.27055 | 13.15819 | 1601 ft | 143 kts | 165° |
| 2026-05-06 09:14 | 38.26093 | 13.16126 | 1433 ft | 141 kts | 163° |
| 2026-05-06 09:14 | 38.25131 | 13.16443 | 1337 ft | 148 kts | 164° |
| 2026-05-06 09:14 | 38.24468 | 13.16665 | 1269 ft | 150 kts | 164° |
| 2026-05-06 09:14 | 38.23468 | 13.16998 | 1166 ft | 145 kts | 164° |
| 2026-05-06 09:15 | 38.22477 | 13.17224 | 1161 ft | 145 kts | 172° |
| 2026-05-06 09:15 | 38.21448 | 13.17246 | 1015 ft | 147 kts | 184° |
| 2026-05-06 09:15 | 38.20500 | 13.16770 | 825 ft | 152 kts | 221° |
| 2026-05-06 09:15 | 38.19838 | 13.15729 | 708 ft | 157 kts | 238° |
| 2026-05-06 09:16 | 38.19369 | 13.14473 | 509 ft | 158 kts | 250° |
| 2026-05-06 09:16 | 38.18944 | 13.13171 | 294 ft | 160 kts | 248° |
| 2026-05-06 09:16 | 38.18511 | 13.11867 | 92 ft | 163 kts | 248° |
| 2026-05-06 09:16 | 38.18110 | 13.10673 | 66 ft | 124 kts | 247° |
| 2026-05-06 09:17 | 38.17859 | 13.09921 | 61 ft | 61 kts | 247° |
| 2026-05-06 09:17 | 38.17715 | 13.09491 | 68 ft | 37 kts | 247° |
| 2026-05-06 09:17 | 38.17646 | 13.09289 | 68 ft | 19 kts | 247° |
| 2026-05-06 09:17 | 38.17615 | 13.09163 | 68 ft | 9 kts | 281° |
| 2026-05-06 09:18 | 38.17630 | 13.09142 | 65 ft | 5 kts | 338° |
| 2026-05-06 09:18 | 38.17686 | 13.09164 | 69 ft | 12 kts | 25° |
| 2026-05-06 09:18 | 38.17775 | 13.09215 | 70 ft | 15 kts | 24° |
| 2026-05-06 09:18 | 38.17848 | 13.09299 | 72 ft | 14 kts | 60° |
| 2026-05-06 09:19 | 38.17897 | 13.09429 | 64 ft | 18 kts | 67° |
| 2026-05-06 09:19 | 38.17947 | 13.09576 | 60 ft | 18 kts | 67° |
| 2026-05-06 09:19 | 38.17996 | 13.09726 | 62 ft | 19 kts | 67° |
| 2026-05-06 09:19 | 38.18047 | 13.09873 | 59 ft | 19 kts | 66° |
| 2026-05-06 09:20 | 38.18107 | 13.10048 | 58 ft | 24 kts | 66° |
| 2026-05-06 09:20 | 38.18174 | 13.10248 | 65 ft | 24 kts | 67° |
| 2026-05-06 09:20 | 38.18241 | 13.10447 | 60 ft | 26 kts | 66° |
| 2026-05-06 09:20 | 38.18314 | 13.10666 | 61 ft | 27 kts | 66° |
| 2026-05-06 09:21 | 38.18378 | 13.10853 | 58 ft | 17 kts | 66° |
| 2026-05-06 09:21 | 38.18430 | 13.10936 | 63 ft | 12 kts | 13° |
| 2026-05-06 09:21 | 38.18507 | 13.10962 | 64 ft | 11 kts | 20° |
| 2026-05-06 09:21 | 38.18571 | 13.10952 | 62 ft | 9 kts | 338° |
| 2026-05-06 09:22 | 38.18594 | 13.10940 | 64 ft | 1 kts | 336° |
| 2026-05-06 09:22 | 38.18606 | 13.10920 | 60 ft | 4 kts | 283° |
| 2026-05-06 09:22 | 38.18600 | 13.10889 | 64 ft | 4 kts | 250° |
| 2026-05-06 09:22 | 38.18592 | 13.10863 | 64 ft | 1 kts | 248° |
| 2026-05-06 09:23 | 38.18591 | 13.10860 | 64 ft | 0 kts | 248° |